createdAt,value
2017-07-05T00:00:00.466Z,45.3
2017-07-05T00:01:01.943Z,45.1
2017-07-05T00:02:03.396Z,45.4
2017-07-05T00:03:04.862Z,45.3
2017-07-05T00:04:06.300Z,45.5
2017-07-05T00:05:07.857Z,45.5
2017-07-05T00:06:09.298Z,45.4
2017-07-05T00:07:10.709Z,45.2
2017-07-05T00:08:12.143Z,44.9
2017-07-05T00:09:13.585Z,45.3
2017-07-05T00:10:15.051Z,45.3
2017-07-05T00:11:16.514Z,45.1
2017-07-05T00:12:18.104Z,44.9
2017-07-05T00:13:19.617Z,44.9
2017-07-05T00:14:21.062Z,45.5
2017-07-05T00:15:22.539Z,45.4
2017-07-05T00:16:23.985Z,45.5
2017-07-05T00:17:25.463Z,45.3
2017-07-05T00:18:26.928Z,45.1
2017-07-05T00:19:28.430Z,45.2
2017-07-05T00:20:29.929Z,45.6
2017-07-05T00:21:31.374Z,45.4
2017-07-05T00:22:32.804Z,45.4
2017-07-05T00:23:34.246Z,45.5
2017-07-05T00:24:35.682Z,45.5
2017-07-05T00:25:37.104Z,45.4
2017-07-05T00:26:38.571Z,45.3
2017-07-05T00:27:40.149Z,45.5
2017-07-05T00:28:41.724Z,45.4
2017-07-05T00:29:43.338Z,45.4
2017-07-05T00:30:44.794Z,45.4
2017-07-05T00:31:46.393Z,45.4
2017-07-05T00:32:47.834Z,45.5
2017-07-05T00:33:49.380Z,45.4
2017-07-05T00:34:50.842Z,45.5
2017-07-05T00:35:52.386Z,45.4
2017-07-05T00:36:53.857Z,45.7
2017-07-05T00:37:55.282Z,45.4
2017-07-05T00:38:59.181Z,45.3
2017-07-05T00:40:02.066Z,45.3
2017-07-05T00:41:03.512Z,45.8
2017-07-05T00:42:05.025Z,45.7
2017-07-05T00:43:06.607Z,45.6
2017-07-05T00:44:08.128Z,45.7
2017-07-05T00:45:09.765Z,45.7
2017-07-05T00:46:11.236Z,45.6
2017-07-05T00:47:12.683Z,45.5
2017-07-05T00:48:14.161Z,45.7
2017-07-05T00:49:15.674Z,45.7
2017-07-05T00:50:17.113Z,45.7
2017-07-05T00:51:18.559Z,45.7
2017-07-05T00:52:19.991Z,45.7
2017-07-05T00:53:21.429Z,45.8
2017-07-05T00:54:22.900Z,45.7
2017-07-05T00:55:24.334Z,45.8
2017-07-05T00:56:28.596Z,45.7
2017-07-05T00:57:30.044Z,45.5
2017-07-05T00:58:31.486Z,45.8
2017-07-05T00:59:32.934Z,45.7
2017-07-05T01:00:34.590Z,45.7
2017-07-05T01:01:36.154Z,45.5
2017-07-05T01:02:37.583Z,45.7
2017-07-05T01:03:39.034Z,45.7
2017-07-05T01:04:40.500Z,45.6
2017-07-05T01:05:41.971Z,45.7
2017-07-05T01:06:43.417Z,45.7
2017-07-05T01:07:44.930Z,45.7
2017-07-05T01:08:46.358Z,45.7
2017-07-05T01:09:47.786Z,45.7
2017-07-05T01:10:49.238Z,45.5
2017-07-05T01:11:50.664Z,45.5
2017-07-05T01:12:52.099Z,45.6
2017-07-05T01:13:53.559Z,45.6
2017-07-05T01:14:55.046Z,45.6
2017-07-05T01:15:56.491Z,45.5
2017-07-05T01:16:58.129Z,45.6
2017-07-05T01:17:59.574Z,45.6
2017-07-05T01:19:01.033Z,45.6
2017-07-05T01:20:02.578Z,45.5
2017-07-05T01:21:04.061Z,45.6
2017-07-05T01:22:05.501Z,45.6
2017-07-05T01:23:06.967Z,45.4
2017-07-05T01:24:08.440Z,45.8
2017-07-05T01:25:09.872Z,45.4
2017-07-05T01:26:11.455Z,45.4
2017-07-05T01:27:12.910Z,45.9
2017-07-05T01:28:14.352Z,45.9
2017-07-05T01:29:15.834Z,45.6
2017-07-05T01:30:17.308Z,45.7
2017-07-05T01:31:18.733Z,45.5
2017-07-05T01:32:20.279Z,45.7
2017-07-05T01:33:21.751Z,45.4
2017-07-05T01:34:23.191Z,45.7
2017-07-05T01:35:24.655Z,45.6
2017-07-05T01:36:26.133Z,45.4
2017-07-05T01:37:27.609Z,45.9
2017-07-05T01:38:29.091Z,45.8
2017-07-05T01:39:30.536Z,45.7
2017-07-05T01:40:32.010Z,45.6
2017-07-05T01:41:33.582Z,45.4
2017-07-05T01:42:35.016Z,45.9
2017-07-05T01:43:36.459Z,45.8
2017-07-05T01:44:37.891Z,45.8
2017-07-05T01:45:39.336Z,45.8
2017-07-05T01:46:40.773Z,46.1
2017-07-05T01:47:42.201Z,46.0
2017-07-05T01:48:43.666Z,45.6
2017-07-05T01:49:45.292Z,45.6
2017-07-05T01:50:46.946Z,45.9
2017-07-05T01:51:48.392Z,45.5
2017-07-05T01:52:49.812Z,45.7
2017-07-05T01:53:51.256Z,45.7
2017-07-05T01:54:52.746Z,45.9
2017-07-05T01:55:54.130Z,45.6
2017-07-05T01:56:55.586Z,46.1
2017-07-05T01:57:57.012Z,46.2
2017-07-05T01:58:58.543Z,45.8
2017-07-05T01:59:59.994Z,45.8
2017-07-05T02:01:01.456Z,46.0
2017-07-05T02:02:02.904Z,45.8
2017-07-05T02:03:04.396Z,45.8
2017-07-05T02:04:05.826Z,45.6
2017-07-05T02:05:07.339Z,45.7
2017-07-05T02:06:08.775Z,45.8
2017-07-05T02:07:10.234Z,45.8
2017-07-05T02:08:11.656Z,45.7
2017-07-05T02:09:13.084Z,45.7
2017-07-05T02:10:14.517Z,45.4
2017-07-05T02:11:15.945Z,45.7
2017-07-05T02:12:17.421Z,45.4
2017-07-05T02:13:18.845Z,45.7
2017-07-05T02:14:20.276Z,46.0
2017-07-05T02:15:21.749Z,45.8
2017-07-05T02:16:23.178Z,45.9
2017-07-05T02:17:24.621Z,45.8
2017-07-05T02:18:26.130Z,46.1
2017-07-05T02:19:27.533Z,45.9
2017-07-05T02:20:29.104Z,46.1
2017-07-05T02:21:30.555Z,45.7
2017-07-05T02:22:32.030Z,46.0
2017-07-05T02:23:33.495Z,45.7
2017-07-05T02:24:35.010Z,45.7
2017-07-05T02:25:36.448Z,46.0
2017-07-05T02:26:37.878Z,46.0
2017-07-05T02:27:39.307Z,45.7
2017-07-05T02:28:40.737Z,45.8
2017-07-05T02:29:42.183Z,45.7
2017-07-05T02:30:43.614Z,45.7
2017-07-05T02:31:45.043Z,45.6
2017-07-05T02:32:46.487Z,45.7
2017-07-05T02:33:47.957Z,45.8
2017-07-05T02:34:49.385Z,45.8
2017-07-05T02:35:50.851Z,45.7
2017-07-05T02:36:52.281Z,45.7
2017-07-05T02:37:53.711Z,45.7
2017-07-05T02:38:55.151Z,45.8
2017-07-05T02:39:56.591Z,45.8
2017-07-05T02:40:58.209Z,45.6
2017-07-05T02:41:59.658Z,46.0
2017-07-05T02:43:01.125Z,46.0
2017-07-05T02:44:02.619Z,45.8
2017-07-05T02:45:04.106Z,45.7
2017-07-05T02:46:05.560Z,45.7
2017-07-05T02:47:06.995Z,45.8
2017-07-05T02:48:08.437Z,46.2
2017-07-05T02:49:09.927Z,46.1
2017-07-05T02:50:11.378Z,46.1
2017-07-05T02:51:12.817Z,46.2
2017-07-05T02:52:14.271Z,46.2
2017-07-05T02:53:15.713Z,46.1
2017-07-05T02:54:17.147Z,46.1
2017-07-05T02:55:18.595Z,46.1
2017-07-05T02:56:20.065Z,46.2
2017-07-05T02:57:21.483Z,46.1
2017-07-05T02:58:22.935Z,46.1
2017-07-05T02:59:24.370Z,46.1
2017-07-05T03:00:25.808Z,46.0
2017-07-05T03:01:27.275Z,46.0
2017-07-05T03:02:28.819Z,46.2
2017-07-05T03:03:30.255Z,45.9
2017-07-05T03:04:31.678Z,46.0
2017-07-05T03:05:33.145Z,46.1
2017-07-05T03:06:34.748Z,46.0
2017-07-05T03:07:36.190Z,46.0
2017-07-05T03:08:37.648Z,46.2
2017-07-05T03:09:39.079Z,46.2
2017-07-05T03:10:40.513Z,46.0
2017-07-05T03:11:41.950Z,46.1
2017-07-05T03:12:43.408Z,46.2
2017-07-05T03:13:44.842Z,46.1
2017-07-05T03:14:46.302Z,46.0
2017-07-05T03:15:47.758Z,46.1
2017-07-05T03:16:49.221Z,46.3
2017-07-05T03:17:50.641Z,46.3
2017-07-05T03:18:52.090Z,46.1
2017-07-05T03:19:53.593Z,46.3
2017-07-05T03:20:55.039Z,46.0
2017-07-05T03:21:56.507Z,46.0
2017-07-05T03:22:58.182Z,46.0
2017-07-05T03:23:59.666Z,46.1
2017-07-05T03:25:01.109Z,46.1
2017-07-05T03:26:02.583Z,46.1
2017-07-05T03:27:04.047Z,46.0
2017-07-05T03:28:05.468Z,46.0
2017-07-05T03:29:06.967Z,46.0
2017-07-05T03:30:08.408Z,46.0
2017-07-05T03:31:09.838Z,45.9
2017-07-05T03:32:11.292Z,45.9
2017-07-05T03:33:12.737Z,46.2
2017-07-05T03:34:14.190Z,46.1
2017-07-05T03:35:15.645Z,45.9
2017-07-05T03:36:17.081Z,46.2
2017-07-05T03:37:18.579Z,46.1
2017-07-05T03:38:20.001Z,45.7
2017-07-05T03:39:21.459Z,45.9
2017-07-05T03:40:22.958Z,46.1
2017-07-05T03:41:24.403Z,46.0
2017-07-05T03:42:25.874Z,45.8
2017-07-05T03:43:27.309Z,46.0
2017-07-05T03:44:28.808Z,46.2
2017-07-05T03:45:30.231Z,46.0
2017-07-05T03:46:31.665Z,45.4
2017-07-05T03:47:33.233Z,45.7
2017-07-05T03:48:34.681Z,45.6
2017-07-05T03:49:36.106Z,45.4
2017-07-05T03:50:37.543Z,45.9
2017-07-05T03:51:39.006Z,45.7
2017-07-05T03:52:40.501Z,45.5
2017-07-05T03:53:42.115Z,45.9
2017-07-05T03:54:43.801Z,45.6
2017-07-05T03:55:45.447Z,45.7
2017-07-05T03:56:46.909Z,45.9
2017-07-05T03:57:48.399Z,45.8
2017-07-05T03:58:49.846Z,45.7
2017-07-05T03:59:51.278Z,45.9
2017-07-05T04:00:52.720Z,45.9
2017-07-05T04:01:54.179Z,45.9
2017-07-05T04:02:55.647Z,45.9
2017-07-05T04:03:57.074Z,46.0
2017-07-05T04:04:58.640Z,45.9
2017-07-05T04:06:00.072Z,45.8
2017-07-05T04:07:01.520Z,45.7
2017-07-05T04:08:02.997Z,45.7
2017-07-05T04:09:04.434Z,45.6
2017-07-05T04:10:05.869Z,45.7
2017-07-05T04:11:07.364Z,45.6
2017-07-05T04:12:08.811Z,45.6
2017-07-05T04:13:10.255Z,45.4
2017-07-05T04:14:11.696Z,45.3
2017-07-05T04:15:13.131Z,45.1
2017-07-05T04:16:14.560Z,45.2
2017-07-05T04:17:16.039Z,45.3
2017-07-05T04:18:17.478Z,45.0
2017-07-05T04:19:18.936Z,45.0
2017-07-05T04:20:20.370Z,45.1
2017-07-05T04:21:21.838Z,45.2
2017-07-05T04:22:23.270Z,45.2
2017-07-05T04:23:24.836Z,45.0
2017-07-05T04:24:26.296Z,45.6
2017-07-05T04:25:27.742Z,45.0
2017-07-05T04:26:29.263Z,45.2
2017-07-05T04:27:30.721Z,45.5
2017-07-05T04:28:32.181Z,45.5
2017-07-05T04:29:33.628Z,44.8
2017-07-05T04:30:35.059Z,44.7
2017-07-05T04:31:36.490Z,44.1
2017-07-05T04:32:38.001Z,44.4
2017-07-05T04:33:39.454Z,44.7
2017-07-05T04:34:40.906Z,44.1
2017-07-05T04:35:42.355Z,44.3
2017-07-05T04:36:43.846Z,44.5
2017-07-05T04:37:45.310Z,44.3
2017-07-05T04:38:46.778Z,43.8
2017-07-05T04:39:48.210Z,44.0
2017-07-05T04:40:49.647Z,43.9
2017-07-05T04:41:51.090Z,44.0
2017-07-05T04:42:52.526Z,44.1
2017-07-05T04:43:53.962Z,44.5
2017-07-05T04:44:55.390Z,44.5
2017-07-05T04:45:56.838Z,44.5
2017-07-05T04:46:58.424Z,44.5
2017-07-05T04:47:59.879Z,44.2
2017-07-05T04:49:01.308Z,44.2
2017-07-05T04:50:02.820Z,44.1
2017-07-05T04:51:04.279Z,44.3
2017-07-05T04:52:05.709Z,44.6
2017-07-05T04:53:07.145Z,44.8
2017-07-05T04:54:08.580Z,44.7
2017-07-05T04:55:10.028Z,44.3
2017-07-05T04:56:11.487Z,44.3
2017-07-05T04:57:12.935Z,44.4
2017-07-05T04:58:14.387Z,44.4
2017-07-05T04:59:15.843Z,44.4
2017-07-05T05:00:17.278Z,44.1
2017-07-05T05:01:18.728Z,44.3
2017-07-05T05:02:20.176Z,44.5
2017-07-05T05:03:21.616Z,44.3
2017-07-05T05:04:23.078Z,44.1
2017-07-05T05:05:24.528Z,44.5
2017-07-05T05:06:25.983Z,44.4
2017-07-05T05:07:27.415Z,44.6
2017-07-05T05:08:28.950Z,44.3
2017-07-05T05:09:30.414Z,44.7
2017-07-05T05:10:31.897Z,44.8
2017-07-05T05:11:33.326Z,44.3
2017-07-05T05:12:34.782Z,44.7
2017-07-05T05:13:36.223Z,44.6
2017-07-05T05:14:37.650Z,44.2
2017-07-05T05:15:39.091Z,44.7
2017-07-05T05:16:40.544Z,44.8
2017-07-05T05:17:42.005Z,44.5
2017-07-05T05:18:43.477Z,44.7
2017-07-05T05:19:44.936Z,44.3
2017-07-05T05:20:46.396Z,44.8
2017-07-05T05:21:47.832Z,44.5
2017-07-05T05:22:49.258Z,44.5
2017-07-05T05:23:50.730Z,44.1
2017-07-05T05:24:52.206Z,43.9
2017-07-05T05:25:53.639Z,44.0
2017-07-05T05:26:55.082Z,44.1
2017-07-05T05:27:56.583Z,44.4
2017-07-05T05:28:58.245Z,44.3
2017-07-05T05:29:59.724Z,44.5
2017-07-05T05:31:01.155Z,43.8
2017-07-05T05:32:02.612Z,43.7
2017-07-05T05:33:04.140Z,44.4
2017-07-05T05:34:05.623Z,44.1
2017-07-05T05:35:07.007Z,44.0
2017-07-05T05:36:08.443Z,43.6
2017-07-05T05:37:09.869Z,43.6
2017-07-05T05:38:11.341Z,43.5
2017-07-05T05:39:12.789Z,43.6
2017-07-05T05:40:14.233Z,43.5
2017-07-05T05:41:15.687Z,43.6
2017-07-05T05:42:17.230Z,43.5
2017-07-05T05:43:18.797Z,43.7
2017-07-05T05:44:20.329Z,43.6
2017-07-05T05:45:21.937Z,43.3
2017-07-05T05:46:23.460Z,43.5
2017-07-05T05:47:24.997Z,43.3
2017-07-05T05:48:26.544Z,43.2
2017-07-05T05:49:27.990Z,43.1
2017-07-05T05:50:29.537Z,43.2
2017-07-05T05:51:31.063Z,43.0
2017-07-05T05:52:32.542Z,43.1
2017-07-05T05:53:34.103Z,42.9
2017-07-05T05:54:35.579Z,42.9
2017-07-05T05:55:37.251Z,42.8
2017-07-05T05:56:38.791Z,42.5
2017-07-05T05:57:40.465Z,42.2
2017-07-05T05:58:42.028Z,42.2
2017-07-05T05:59:43.687Z,42.1
2017-07-05T06:00:45.288Z,42.1
2017-07-05T06:01:46.849Z,42.1
2017-07-05T06:02:48.420Z,42.2
2017-07-05T06:03:50.033Z,42.4
2017-07-05T06:04:51.565Z,42.0
2017-07-05T06:05:53.024Z,42.5
2017-07-05T06:06:54.571Z,42.5
2017-07-05T06:07:56.042Z,42.5
2017-07-05T06:08:57.664Z,41.4
2017-07-05T06:09:59.276Z,39.7
2017-07-05T06:11:00.806Z,38.7
2017-07-05T06:12:02.326Z,38.6
2017-07-05T06:13:04.187Z,39.0
2017-07-05T06:14:05.862Z,39.1
2017-07-05T06:15:07.419Z,39.6
2017-07-05T06:16:09.733Z,39.3
2017-07-05T06:17:11.543Z,38.0
2017-07-05T06:18:13.254Z,37.8
2017-07-05T06:19:15.133Z,37.2
2017-07-05T06:20:16.777Z,36.5
2017-07-05T06:21:18.519Z,36.4
2017-07-05T06:22:20.092Z,36.1
2017-07-05T06:23:22.065Z,36.3
2017-07-05T06:24:25.198Z,35.9
2017-07-05T06:25:26.761Z,35.9
2017-07-05T06:26:28.986Z,36.1
2017-07-05T06:27:30.573Z,36.1
2017-07-05T06:28:32.153Z,36.0
2017-07-05T06:29:33.800Z,35.9
2017-07-05T06:30:35.962Z,35.7
2017-07-05T06:31:37.544Z,35.9
2017-07-05T06:32:39.251Z,36.0
2017-07-05T06:33:41.495Z,36.2
2017-07-05T06:34:43.129Z,36.4
2017-07-05T06:35:44.559Z,37.2
2017-07-05T06:36:46.007Z,37.6
2017-07-05T06:37:47.534Z,37.8
2017-07-05T06:38:49.003Z,37.9
2017-07-05T06:39:50.496Z,37.8
2017-07-05T06:40:52.014Z,36.8
2017-07-05T06:41:53.502Z,36.5
2017-07-05T06:42:54.942Z,36.8
2017-07-05T06:43:56.431Z,37.1
2017-07-05T06:44:58.230Z,36.6
2017-07-05T06:45:59.589Z,36.3
2017-07-05T06:47:01.035Z,36.4
2017-07-05T06:48:02.630Z,36.5
2017-07-05T06:49:04.082Z,36.7
2017-07-05T06:50:05.867Z,36.7
2017-07-05T06:51:07.606Z,36.3
2017-07-05T06:52:09.162Z,36.7
2017-07-05T06:53:10.804Z,36.4
2017-07-05T06:54:12.485Z,36.5
2017-07-05T06:55:14.233Z,36.6
2017-07-05T06:56:15.977Z,36.7
2017-07-05T06:57:17.597Z,36.8
2017-07-05T06:58:19.126Z,37.3
2017-07-05T06:59:20.891Z,37.3
2017-07-05T07:00:22.498Z,37.6
2017-07-05T07:01:24.087Z,37.8
2017-07-05T07:02:25.538Z,38.0
2017-07-05T07:03:27.094Z,38.0
2017-07-05T07:04:28.794Z,37.8
2017-07-05T07:05:30.444Z,37.9
2017-07-05T07:06:31.907Z,38.0
2017-07-05T07:07:33.357Z,37.8
2017-07-05T07:08:34.907Z,38.2
2017-07-05T07:09:36.650Z,37.8
2017-07-05T07:10:38.205Z,38.0
2017-07-05T07:11:39.828Z,36.9
2017-07-05T07:12:41.364Z,36.1
2017-07-05T07:13:42.900Z,35.6
2017-07-05T07:14:44.447Z,35.2
2017-07-05T07:15:46.046Z,34.6
2017-07-05T07:16:47.561Z,34.3
2017-07-05T07:17:49.069Z,34.1
2017-07-05T07:18:50.563Z,34.4
2017-07-05T07:19:52.018Z,34.9
2017-07-05T07:20:53.479Z,34.9
2017-07-05T07:21:55.056Z,35.4
2017-07-05T07:22:56.516Z,35.3
2017-07-05T07:23:58.065Z,35.7
2017-07-05T07:24:59.457Z,35.7
2017-07-05T07:26:00.905Z,35.9
2017-07-05T07:27:02.378Z,36.0
2017-07-05T07:28:03.839Z,36.2
2017-07-05T07:29:05.274Z,36.5
2017-07-05T07:30:06.711Z,36.4
2017-07-05T07:31:08.177Z,36.5
2017-07-05T07:32:09.633Z,36.6
2017-07-05T07:33:11.075Z,36.5
2017-07-05T07:34:12.526Z,36.7
2017-07-05T07:35:13.974Z,36.7
2017-07-05T07:36:15.410Z,36.7
2017-07-05T07:37:16.933Z,37.0
2017-07-05T07:38:18.374Z,36.9
2017-07-05T07:39:19.838Z,36.9
2017-07-05T07:40:21.272Z,36.8
2017-07-05T07:41:23.286Z,37.0
2017-07-05T07:42:24.842Z,37.1
2017-07-05T07:43:26.393Z,37.2
2017-07-05T07:44:27.837Z,38.3
2017-07-05T07:45:29.438Z,39.8
2017-07-05T07:46:31.375Z,41.8
2017-07-05T07:47:32.920Z,42.8
2017-07-05T07:48:34.718Z,44.1
2017-07-05T07:49:36.425Z,41.3
2017-07-05T07:50:38.118Z,31.7
2017-07-05T07:51:39.688Z,31.5
2017-07-05T07:52:41.172Z,29.4
2017-07-05T07:53:42.791Z,26.3
2017-07-05T07:54:44.371Z,23.5
2017-07-05T07:55:46.280Z,23.3
2017-07-05T07:56:47.799Z,21.9
2017-07-05T07:57:49.362Z,18.2
2017-07-05T07:58:51.131Z,17.9
2017-07-05T07:59:52.578Z,19.9
2017-07-05T08:00:54.040Z,19.9
2017-07-05T08:01:55.485Z,21.7
2017-07-05T08:02:56.996Z,21.7
2017-07-05T08:03:58.928Z,22.1
2017-07-05T08:05:00.534Z,21.5
2017-07-05T08:06:02.069Z,21.1
2017-07-05T08:07:03.593Z,19.4
2017-07-05T08:08:05.131Z,19.6
2017-07-05T08:09:06.719Z,17.5
2017-07-05T08:10:08.150Z,15.0
2017-07-05T08:11:09.699Z,12.7
2017-07-05T08:12:11.283Z,12.8
2017-07-05T08:13:12.752Z,12.3
2017-07-05T08:14:14.274Z,13.2
2017-07-05T08:15:15.760Z,14.2
2017-07-05T08:16:17.316Z,14.0
2017-07-05T08:17:18.887Z,15.2
2017-07-05T08:18:20.711Z,11.9
2017-07-05T08:19:22.253Z,11.1
2017-07-05T08:20:23.747Z,11.2
2017-07-05T08:21:25.229Z,11.9
2017-07-05T08:22:26.922Z,10.3
2017-07-05T08:23:28.866Z,10.9
2017-07-05T08:24:30.196Z,11.3
2017-07-05T08:25:31.769Z,12.8
2017-07-05T08:26:34.073Z,13.4
2017-07-05T08:27:36.218Z,12.2
2017-07-05T08:28:38.382Z,14.9
2017-07-05T08:29:40.534Z,14.2
2017-07-05T08:30:42.759Z,13.3
2017-07-05T08:31:44.960Z,13.6
2017-07-05T08:32:47.059Z,12.8
2017-07-05T08:33:49.235Z,12.9
2017-07-05T08:34:51.357Z,13.2
2017-07-05T08:35:53.532Z,13.9
2017-07-05T08:36:55.660Z,12.7
2017-07-05T08:37:57.854Z,13.3
2017-07-05T08:38:59.964Z,14.2
2017-07-05T08:40:02.041Z,13.0
2017-07-05T08:41:04.173Z,14.8
2017-07-05T08:42:06.391Z,14.5
2017-07-05T08:43:08.527Z,14.2
2017-07-05T08:44:10.476Z,12.2
2017-07-05T08:45:12.695Z,19.6
2017-07-05T08:46:16.398Z,24.1
2017-07-05T08:47:19.252Z,23.1
2017-07-05T08:48:22.293Z,22.4
2017-07-05T08:49:28.853Z,22.4
2017-07-05T08:50:33.989Z,23.4
2017-07-05T08:51:37.420Z,24.6
2017-07-05T08:52:56.730Z,22.1
2017-07-05T08:54:02.299Z,19.9
2017-07-05T08:55:08.114Z,23.8
2017-07-05T08:56:17.347Z,23.3
2017-07-05T08:57:25.161Z,22.3
2017-07-05T08:58:26.690Z,23.1
2017-07-05T08:59:28.343Z,25.3
2017-07-05T09:00:30.131Z,25.0
2017-07-05T09:01:31.617Z,23.5
2017-07-05T09:02:33.205Z,25.2
2017-07-05T09:03:34.756Z,25.8
2017-07-05T09:04:36.231Z,23.9
2017-07-05T09:05:37.762Z,25.7
2017-07-05T09:06:39.463Z,23.7
2017-07-05T09:07:41.359Z,25.4
2017-07-05T09:08:42.978Z,27.0
2017-07-05T09:09:44.527Z,26.0
2017-07-05T09:10:46.032Z,24.2
2017-07-05T09:11:47.647Z,23.0
2017-07-05T09:12:49.201Z,21.0
2017-07-05T09:13:50.846Z,19.6
2017-07-05T09:14:52.351Z,20.9
2017-07-05T09:15:53.918Z,20.0
2017-07-05T09:16:55.586Z,21.8
2017-07-05T09:17:57.228Z,21.1
2017-07-05T09:18:58.924Z,23.5
2017-07-05T09:20:00.510Z,26.3
2017-07-05T09:21:02.499Z,23.3
2017-07-05T09:22:04.078Z,20.5
2017-07-05T09:23:05.608Z,19.9
2017-07-05T09:24:07.067Z,23.2
2017-07-05T09:25:08.650Z,23.7
2017-07-05T09:26:10.141Z,23.6
2017-07-05T09:27:11.660Z,21.5
2017-07-05T09:28:13.228Z,20.6
2017-07-05T09:29:14.871Z,20.9
2017-07-05T09:30:16.467Z,23.4
2017-07-05T09:31:17.959Z,21.0
2017-07-05T09:32:19.425Z,19.5
2017-07-05T09:33:21.170Z,19.8
2017-07-05T09:34:22.708Z,18.1
2017-07-05T09:35:24.350Z,17.0
2017-07-05T09:36:25.954Z,19.3
2017-07-05T09:37:27.951Z,18.7
2017-07-05T09:38:29.748Z,16.9
2017-07-05T09:39:32.032Z,19.5
2017-07-05T09:40:35.391Z,19.4
2017-07-05T09:41:36.886Z,19.0
2017-07-05T09:42:38.387Z,23.8
2017-07-05T09:43:39.867Z,21.8
2017-07-05T09:44:41.365Z,21.0
2017-07-05T09:45:42.890Z,18.4
2017-07-05T09:46:44.388Z,19.2
2017-07-05T09:47:45.947Z,18.1
2017-07-05T09:48:47.523Z,25.5
2017-07-05T09:49:49.011Z,23.1
2017-07-05T09:50:50.833Z,20.9
2017-07-05T09:51:52.457Z,21.9
2017-07-05T09:52:54.062Z,22.6
2017-07-05T09:53:55.583Z,21.8
2017-07-05T09:54:57.081Z,18.5
2017-07-05T09:55:58.824Z,18.8
2017-07-05T09:57:00.285Z,20.2
2017-07-05T09:58:01.746Z,18.4
2017-07-05T09:59:03.228Z,22.7
2017-07-05T10:00:04.767Z,20.8
2017-07-05T10:01:06.214Z,20.8
2017-07-05T10:02:07.666Z,22.0
2017-07-05T10:03:09.111Z,19.9
2017-07-05T10:04:10.633Z,18.8
2017-07-05T10:05:12.141Z,20.5
2017-07-05T10:06:13.624Z,16.4
2017-07-05T10:07:15.076Z,16.6
2017-07-05T10:08:16.577Z,20.3
2017-07-05T10:09:18.050Z,28.6
2017-07-05T10:10:19.723Z,30.9
2017-07-05T10:11:21.222Z,24.0
2017-07-05T10:12:22.757Z,26.6
2017-07-05T10:13:24.226Z,22.5
2017-07-05T10:14:25.699Z,21.3
2017-07-05T10:15:27.250Z,23.6
2017-07-05T10:16:28.732Z,26.7
2017-07-05T10:17:30.211Z,23.8
2017-07-05T10:18:31.658Z,20.9
2017-07-05T10:19:33.180Z,17.4
2017-07-05T10:20:34.661Z,17.3
2017-07-05T10:21:36.133Z,15.4
2017-07-05T10:22:37.580Z,19.1
2017-07-05T10:23:39.233Z,17.4
2017-07-05T10:24:40.740Z,19.3
2017-07-05T10:25:42.193Z,19.8
2017-07-05T10:26:43.675Z,20.0
2017-07-05T10:27:45.126Z,16.9
2017-07-05T10:28:46.639Z,17.6
2017-07-05T10:29:48.110Z,23.1
2017-07-05T10:30:49.559Z,28.8
2017-07-05T10:31:51.012Z,31.8
2017-07-05T10:32:52.464Z,33.2
2017-07-05T10:33:53.909Z,26.4
2017-07-05T10:34:55.414Z,21.9
2017-07-05T10:35:56.897Z,22.5
2017-07-05T10:36:58.505Z,19.3
2017-07-05T10:37:59.944Z,20.9
2017-07-05T10:39:01.413Z,18.8
2017-07-05T10:40:02.907Z,19.1
2017-07-05T10:41:04.425Z,17.6
2017-07-05T10:42:05.876Z,17.1
2017-07-05T10:43:07.384Z,17.1
2017-07-05T10:44:08.839Z,15.5
2017-07-05T10:45:10.312Z,15.7
2017-07-05T10:46:11.798Z,14.4
2017-07-05T10:47:13.284Z,17.1
2017-07-05T10:48:14.745Z,18.4
2017-07-05T10:49:16.198Z,19.6
2017-07-05T10:50:17.727Z,21.1
2017-07-05T10:51:19.195Z,18.5
2017-07-05T10:52:20.646Z,17.4
2017-07-05T10:53:22.109Z,16.3
2017-07-05T10:54:23.549Z,16.0
2017-07-05T10:55:25.063Z,15.5
2017-07-05T10:56:27.319Z,17.6
2017-07-05T10:57:28.833Z,22.0
2017-07-05T10:58:30.615Z,27.4
2017-07-05T10:59:32.251Z,27.6
2017-07-05T11:00:33.760Z,19.6
2017-07-05T11:01:35.329Z,16.7
2017-07-05T11:03:16.518Z,18.3
2017-07-05T11:04:18.165Z,17.2
2017-07-05T11:05:39.981Z,20.1
2017-07-05T11:06:41.642Z,26.3
2017-07-05T11:07:43.460Z,28.5
2017-07-05T11:08:45.259Z,27.2
2017-07-05T11:09:46.837Z,31.0
2017-07-05T11:10:48.621Z,32.7
2017-07-05T11:11:50.498Z,32.4
2017-07-05T11:12:52.235Z,33.7
2017-07-05T11:13:54.005Z,33.8
2017-07-05T11:14:55.823Z,34.3
2017-07-05T11:15:57.879Z,34.9
2017-07-05T11:16:59.987Z,33.9
2017-07-05T11:18:01.877Z,24.5
2017-07-05T11:19:03.842Z,27.6
2017-07-05T11:20:05.792Z,22.1
2017-07-05T11:21:07.676Z,26.2
2017-07-05T11:22:09.405Z,29.9
2017-07-05T11:23:11.300Z,26.8
2017-07-05T11:24:13.165Z,27.6
2017-07-05T11:25:14.976Z,31.8
2017-07-05T11:26:16.893Z,26.4
2017-07-05T11:27:18.788Z,22.9
2017-07-05T11:28:20.654Z,22.9
2017-07-05T11:29:22.427Z,23.9
2017-07-05T11:30:24.401Z,28.1
2017-07-05T11:31:26.104Z,31.1
2017-07-05T11:32:27.881Z,32.2
2017-07-05T11:33:29.751Z,33.2
2017-07-05T11:34:31.686Z,30.6
2017-07-05T11:35:33.503Z,30.5
2017-07-05T11:36:35.460Z,28.1
2017-07-05T11:37:37.431Z,26.4
2017-07-05T11:38:39.419Z,19.7
2017-07-05T11:39:41.284Z,17.4
2017-07-05T11:40:43.054Z,16.9
2017-07-05T11:41:45.392Z,15.9
2017-07-05T11:42:47.083Z,18.8
2017-07-05T11:43:48.872Z,23.3
2017-07-05T11:44:50.710Z,23.0
2017-07-05T11:45:52.475Z,20.2
2017-07-05T11:46:54.037Z,21.8
2017-07-05T11:47:55.564Z,16.7
2017-07-05T11:48:57.221Z,18.9
2017-07-05T11:49:59.062Z,24.8
2017-07-05T11:51:00.575Z,28.1
2017-07-05T11:52:02.151Z,29.1
2017-07-05T11:53:03.756Z,24.7
2017-07-05T11:54:05.260Z,16.2
2017-07-05T11:55:06.744Z,17.2
2017-07-05T11:56:08.320Z,13.3
2017-07-05T11:57:09.916Z,17.5
2017-07-05T11:58:11.603Z,21.2
2017-07-05T11:59:13.201Z,25.5
2017-07-05T12:00:14.884Z,28.4
2017-07-05T12:01:16.475Z,30.3
2017-07-05T12:02:18.039Z,31.2
2017-07-05T12:03:19.574Z,31.5
2017-07-05T12:04:21.247Z,32.2
2017-07-05T12:05:22.830Z,31.7
2017-07-05T12:06:24.484Z,32.2
2017-07-05T12:07:27.606Z,31.4
2017-07-05T12:08:29.832Z,28.4
2017-07-05T12:09:31.985Z,25.3
2017-07-05T12:10:34.317Z,26.2
2017-07-05T12:11:36.461Z,27.2
2017-07-05T12:12:38.578Z,29.8
2017-07-05T12:13:40.762Z,32.6
2017-07-05T12:14:42.863Z,32.1
2017-07-05T12:15:45.037Z,31.0
2017-07-05T12:16:47.192Z,31.6
2017-07-05T12:17:49.312Z,34.0
2017-07-05T12:18:51.658Z,34.0
2017-07-05T12:19:53.809Z,35.6
2017-07-05T12:20:55.954Z,35.8
2017-07-05T12:21:58.058Z,33.6
2017-07-05T12:23:00.261Z,33.4
2017-07-05T12:24:02.445Z,32.8
2017-07-05T12:25:04.604Z,31.4
2017-07-05T12:26:06.786Z,31.4
2017-07-05T12:27:08.957Z,31.6
2017-07-05T12:28:11.056Z,33.7
2017-07-05T12:29:13.254Z,32.4
2017-07-05T12:30:15.450Z,31.5
2017-07-05T12:31:17.675Z,31.7
2017-07-05T12:32:19.837Z,31.5
2017-07-05T12:33:21.947Z,31.3
2017-07-05T12:34:24.029Z,32.7
2017-07-05T12:35:26.168Z,31.4
2017-07-05T12:36:30.981Z,31.5
2017-07-05T12:37:33.150Z,33.2
2017-07-05T12:38:34.881Z,34.6
2017-07-05T12:39:36.430Z,34.4
2017-07-05T12:40:37.993Z,33.2
2017-07-05T12:41:39.496Z,26.6
2017-07-05T12:42:41.141Z,25.1
2017-07-05T12:43:42.933Z,29.6
2017-07-05T12:44:44.466Z,28.6
2017-07-05T12:45:46.122Z,30.0
2017-07-05T12:46:47.990Z,30.0
2017-07-05T12:47:49.586Z,27.8
2017-07-05T12:48:51.252Z,28.8
2017-07-05T12:49:53.533Z,28.1
2017-07-05T12:50:55.662Z,26.9
2017-07-05T12:51:57.209Z,28.7
2017-07-05T12:52:59.079Z,31.0
2017-07-05T12:54:00.955Z,28.6
2017-07-05T12:55:02.601Z,28.8
2017-07-05T12:56:04.546Z,30.1
2017-07-05T12:57:06.632Z,30.5
2017-07-05T12:58:08.518Z,29.9
2017-07-05T12:59:10.456Z,29.6
2017-07-05T13:00:12.422Z,30.6
2017-07-05T13:01:14.184Z,29.7
2017-07-05T13:02:16.024Z,31.0
2017-07-05T13:03:18.058Z,29.9
2017-07-05T13:04:20.055Z,30.6
2017-07-05T13:05:21.882Z,31.8
2017-07-05T13:06:23.593Z,34.8
2017-07-05T13:07:25.300Z,38.8
2017-07-05T13:08:27.284Z,40.6
2017-07-05T13:09:29.594Z,42.0
2017-07-05T13:10:31.622Z,41.2
2017-07-05T13:11:33.769Z,41.8
2017-07-05T13:12:35.717Z,42.1
2017-07-05T13:13:37.502Z,41.8
2017-07-05T13:14:39.374Z,41.5
2017-07-05T13:15:41.269Z,42.2
2017-07-05T13:16:42.883Z,42.8
2017-07-05T13:17:44.601Z,42.1
2017-07-05T13:18:46.739Z,42.4
2017-07-05T13:19:48.801Z,42.1
2017-07-05T13:20:50.726Z,41.7
2017-07-05T13:21:52.651Z,41.8
2017-07-05T13:22:54.648Z,40.9
2017-07-05T13:23:56.274Z,41.1
2017-07-05T13:24:57.870Z,36.5
2017-07-05T13:25:59.606Z,40.0
2017-07-05T13:27:01.259Z,40.6
2017-07-05T13:28:02.837Z,41.3
2017-07-05T13:29:04.376Z,41.4
2017-07-05T13:30:05.967Z,41.3
2017-07-05T13:31:07.919Z,42.2
2017-07-05T13:32:09.874Z,42.0
2017-07-05T13:33:11.922Z,41.9
2017-07-05T13:34:13.810Z,42.0
2017-07-05T13:35:15.683Z,43.0
2017-07-05T13:36:17.512Z,42.9
2017-07-05T13:37:19.399Z,42.2
2017-07-05T13:38:21.108Z,41.6
2017-07-05T13:39:22.951Z,41.6
2017-07-05T13:40:24.847Z,40.5
2017-07-05T13:41:26.590Z,38.1